createdAt,value
2023-12-05T00:02:19.177Z,80.13
2023-12-05T00:04:48.758Z,79.70
2023-12-05T00:07:16.446Z,79.70
2023-12-05T00:09:44.062Z,79.76
2023-12-05T00:12:11.619Z,79.93
2023-12-05T00:14:39.250Z,79.99
2023-12-05T00:17:06.818Z,80.03
2023-12-05T00:19:34.630Z,79.89
2023-12-05T00:22:03.589Z,80.17
2023-12-05T00:24:31.152Z,79.87
2023-12-05T00:26:58.833Z,79.61
2023-12-05T00:29:26.424Z,79.38
2023-12-05T00:31:54.257Z,78.91
2023-12-05T00:34:22.094Z,78.92
2023-12-05T00:36:50.181Z,79.45
2023-12-05T00:39:19.170Z,79.16
2023-12-05T00:41:47.977Z,78.73
2023-12-05T00:44:15.533Z,78.43
2023-12-05T00:46:43.108Z,78.89
2023-12-05T00:49:10.855Z,78.71
2023-12-05T00:51:38.613Z,78.17
2023-12-05T00:54:06.248Z,78.02
2023-12-05T00:56:35.159Z,77.98
2023-12-05T00:59:02.701Z,78.34
2023-12-05T01:01:30.444Z,78.17
2023-12-05T01:03:58.616Z,77.89
2023-12-05T01:06:26.419Z,77.90
2023-12-05T01:08:54.072Z,78.41
2023-12-05T01:11:21.857Z,78.81
2023-12-05T01:13:50.793Z,79.14
2023-12-05T01:16:18.367Z,79.49
2023-12-05T01:18:46.025Z,79.75
2023-12-05T01:21:13.658Z,79.84
2023-12-05T01:23:42.328Z,79.88
2023-12-05T01:26:09.877Z,80.32
2023-12-05T01:28:37.438Z,80.24
2023-12-05T01:31:06.748Z,80.84
2023-12-05T01:33:34.349Z,80.59
2023-12-05T01:36:01.889Z,80.34
2023-12-05T01:38:29.494Z,80.97
2023-12-05T01:40:57.036Z,80.84
2023-12-05T01:43:24.943Z,80.69
2023-12-05T01:45:53.354Z,80.83
2023-12-05T01:48:22.700Z,80.59
2023-12-05T01:50:50.799Z,80.40
2023-12-05T01:53:18.860Z,80.54
2023-12-05T01:55:46.720Z,80.57
2023-12-05T01:58:15.577Z,80.69
2023-12-05T02:00:43.537Z,80.56
2023-12-05T02:03:12.147Z,80.24
2023-12-05T02:05:41.232Z,80.60
2023-12-05T02:08:12.653Z,80.74
2023-12-05T02:10:40.683Z,80.40
2023-12-05T02:13:08.286Z,80.66
2023-12-05T02:15:35.939Z,80.48
2023-12-05T02:18:12.428Z,80.65
2023-12-05T02:20:48.696Z,80.66
2023-12-05T02:23:43.478Z,81.09
2023-12-05T02:26:21.078Z,80.72
2023-12-05T02:28:50.646Z,80.58
2023-12-05T02:31:18.741Z,80.69
2023-12-05T02:33:48.390Z,80.70
2023-12-05T02:36:38.030Z,81.19
2023-12-05T02:39:13.433Z,81.33
2023-12-05T02:41:46.469Z,81.52
2023-12-05T02:44:17.485Z,81.37
2023-12-05T02:46:46.560Z,81.61
2023-12-05T02:49:14.523Z,81.30
2023-12-05T02:51:42.829Z,81.46
2023-12-05T02:54:10.425Z,81.80
2023-12-05T02:56:38.121Z,81.89
2023-12-05T02:59:06.130Z,81.86
2023-12-05T03:01:40.593Z,82.21
2023-12-05T03:04:08.448Z,81.99
2023-12-05T03:06:36.261Z,81.68
2023-12-05T03:09:04.855Z,81.64
2023-12-05T03:11:32.864Z,81.53
2023-12-05T03:14:00.822Z,81.27
2023-12-05T03:16:28.499Z,81.31
2023-12-05T03:18:57.579Z,80.98
2023-12-05T03:21:25.648Z,80.96
2023-12-05T03:23:53.251Z,80.75
2023-12-05T03:26:21.255Z,80.67
2023-12-05T03:28:50.023Z,81.23
2023-12-05T03:31:17.655Z,81.09
2023-12-05T03:33:45.748Z,80.60
2023-12-05T03:36:15.342Z,81.00
2023-12-05T03:38:42.912Z,81.11
2023-12-05T03:41:10.896Z,80.81
2023-12-05T03:43:38.500Z,80.87
2023-12-05T03:46:06.585Z,81.04
2023-12-05T03:48:34.326Z,80.91
2023-12-05T03:51:02.091Z,80.95
2023-12-05T03:53:31.144Z,80.99
2023-12-05T03:55:58.677Z,80.84
2023-12-05T03:58:26.369Z,81.27
2023-12-05T04:00:53.981Z,81.48
2023-12-05T04:03:21.838Z,81.21
2023-12-05T04:05:49.537Z,81.53
2023-12-05T04:08:17.100Z,81.30
2023-12-05T04:10:45.935Z,81.58
2023-12-05T04:13:13.490Z,81.32
2023-12-05T04:15:41.700Z,81.47
2023-12-05T04:18:09.302Z,81.92
2023-12-05T04:20:36.959Z,81.87
2023-12-05T04:23:04.547Z,81.65
2023-12-05T04:25:32.188Z,81.52
2023-12-05T04:28:01.060Z,81.82
2023-12-05T04:30:28.646Z,81.38
2023-12-05T04:32:56.258Z,81.23
2023-12-05T04:35:23.799Z,80.96
2023-12-05T04:37:51.318Z,81.36
2023-12-05T04:40:20.186Z,80.97
2023-12-05T04:42:48.081Z,81.55
2023-12-05T04:45:17.361Z,81.55
2023-12-05T04:47:45.878Z,81.20
2023-12-05T04:50:13.518Z,81.57
2023-12-05T04:52:41.065Z,81.71
2023-12-05T04:55:09.332Z,81.62
2023-12-05T04:57:36.961Z,81.76
2023-12-05T05:00:07.129Z,82.05
2023-12-05T05:02:36.059Z,82.04
2023-12-05T05:05:03.888Z,81.53
2023-12-05T05:07:31.633Z,81.63
2023-12-05T05:09:59.253Z,81.97
2023-12-05T05:12:27.237Z,81.74
2023-12-05T05:14:54.821Z,82.36
2023-12-05T05:17:22.443Z,82.12
2023-12-05T05:19:51.371Z,82.37
2023-12-05T05:22:18.919Z,82.47
2023-12-05T05:24:46.499Z,82.17
2023-12-05T05:27:14.305Z,82.54
2023-12-05T05:29:41.902Z,82.24
2023-12-05T05:32:09.522Z,82.32
2023-12-05T05:34:37.125Z,81.94
2023-12-05T05:37:06.165Z,82.02
2023-12-05T05:39:34.426Z,82.12
2023-12-05T05:42:01.969Z,82.44
2023-12-05T05:44:29.815Z,82.67
2023-12-05T05:46:57.374Z,83.09
2023-12-05T05:49:25.311Z,82.65
2023-12-05T05:51:52.939Z,82.60
2023-12-05T05:54:23.078Z,82.31
2023-12-05T05:56:50.623Z,82.38
2023-12-05T05:59:18.349Z,82.04
2023-12-05T06:01:48.738Z,81.99
2023-12-05T06:04:16.410Z,82.10
2023-12-05T06:06:44.040Z,82.29
2023-12-05T06:09:11.581Z,81.66
2023-12-05T06:11:40.601Z,81.68
2023-12-05T06:14:08.294Z,82.04
2023-12-05T06:16:35.921Z,82.10
2023-12-05T06:19:03.635Z,82.41
2023-12-05T06:21:31.258Z,82.86
2023-12-05T06:24:00.183Z,82.92
2023-12-05T06:26:27.936Z,82.37
2023-12-05T06:28:56.871Z,82.71
2023-12-05T06:31:25.096Z,82.76
2023-12-05T06:33:52.934Z,82.32
2023-12-05T06:36:20.665Z,81.82
2023-12-05T06:38:48.270Z,81.73
2023-12-05T06:41:15.887Z,81.68
2023-12-05T06:43:43.457Z,81.86
2023-12-05T06:46:12.268Z,82.38
2023-12-05T06:48:39.969Z,82.44
2023-12-05T06:51:07.879Z,82.89
2023-12-05T06:53:39.820Z,82.86
2023-12-05T06:56:15.095Z,82.35
2023-12-05T06:58:43.204Z,82.62
2023-12-05T07:01:12.697Z,82.69
2023-12-05T07:03:47.336Z,82.60
2023-12-05T07:06:18.695Z,82.42
2023-12-05T07:08:46.314Z,82.34
2023-12-05T07:11:13.822Z,82.45
2023-12-05T07:13:41.420Z,82.68
2023-12-05T07:16:11.280Z,82.54
2023-12-05T07:18:40.383Z,82.54
2023-12-05T07:21:09.451Z,82.13
2023-12-05T07:23:37.067Z,82.41
2023-12-05T07:26:04.920Z,82.44
2023-12-05T07:28:32.533Z,82.24
2023-12-05T07:31:00.172Z,82.35
2023-12-05T07:33:27.924Z,82.34
2023-12-05T07:35:58.763Z,82.98
2023-12-05T07:38:26.362Z,82.37
2023-12-05T07:40:54.207Z,82.31
2023-12-05T07:43:21.748Z,81.96
2023-12-05T07:45:49.450Z,82.25
2023-12-05T07:48:17.163Z,81.97
2023-12-05T07:50:45.074Z,82.45
2023-12-05T07:53:14.090Z,81.78
2023-12-05T07:55:41.676Z,81.91
2023-12-05T07:58:09.214Z,81.75
2023-12-05T08:00:39.884Z,82.29
2023-12-05T08:03:07.537Z,82.25
2023-12-05T08:05:35.453Z,81.93
2023-12-05T08:08:03.018Z,82.00
2023-12-05T08:10:32.108Z,81.99
2023-12-05T08:12:59.744Z,82.08
2023-12-05T08:15:27.410Z,81.65
2023-12-05T08:17:55.042Z,81.73
2023-12-05T08:20:22.985Z,81.42
2023-12-05T08:22:50.782Z,81.96
2023-12-05T08:25:18.550Z,82.01
2023-12-05T08:27:47.506Z,82.05
2023-12-05T08:30:15.715Z,81.63
2023-12-05T08:32:43.954Z,82.11
2023-12-05T08:35:11.741Z,81.98
2023-12-05T08:37:39.477Z,81.78
2023-12-05T08:40:08.478Z,81.73
2023-12-05T08:42:36.320Z,81.75
2023-12-05T08:45:05.965Z,81.73
2023-12-05T08:47:33.518Z,82.05
2023-12-05T08:50:01.058Z,81.50
2023-12-05T08:52:28.583Z,81.74
2023-12-05T08:54:56.232Z,81.33
2023-12-05T08:57:24.095Z,81.43
2023-12-05T08:59:51.625Z,81.83
2023-12-05T09:02:22.212Z,81.87
2023-12-05T09:04:49.933Z,81.84
2023-12-05T09:07:18.598Z,81.77
2023-12-05T09:09:46.356Z,81.93
2023-12-05T09:12:13.990Z,82.01
2023-12-05T09:14:41.744Z,81.92
2023-12-05T09:17:11.164Z,82.06
2023-12-05T09:19:40.247Z,81.67
2023-12-05T09:22:07.805Z,81.78
2023-12-05T09:24:35.493Z,81.65
2023-12-05T09:27:03.777Z,81.44
2023-12-05T09:29:32.183Z,81.18
2023-12-05T09:31:59.723Z,81.65
2023-12-05T09:34:27.334Z,81.50
2023-12-05T09:36:56.282Z,81.67
2023-12-05T09:39:24.686Z,81.54
2023-12-05T09:41:54.232Z,81.01
2023-12-05T09:44:23.315Z,80.76
2023-12-05T09:46:54.877Z,80.57
2023-12-05T09:49:27.954Z,80.45
2023-12-05T09:51:57.129Z,80.31
2023-12-05T09:54:27.050Z,80.21
2023-12-05T09:56:56.514Z,79.82
2023-12-05T09:59:24.282Z,80.09
2023-12-05T10:01:54.861Z,79.71
2023-12-05T10:04:24.281Z,79.57
2023-12-05T10:06:53.447Z,79.67
2023-12-05T10:09:24.269Z,79.21
2023-12-05T10:11:52.612Z,79.27
2023-12-05T10:14:20.317Z,79.09
2023-12-05T10:16:48.763Z,79.09
2023-12-05T10:19:16.686Z,78.66
2023-12-05T10:21:45.405Z,78.16
2023-12-05T10:24:40.084Z,78.05
2023-12-05T10:27:09.036Z,78.09
2023-12-05T10:29:39.259Z,77.92
2023-12-05T10:32:08.539Z,77.91
2023-12-05T10:34:50.154Z,77.45
2023-12-05T10:37:22.332Z,76.61
2023-12-05T10:39:52.119Z,76.61
2023-12-05T10:42:20.192Z,76.55
2023-12-05T10:44:48.532Z,76.69
2023-12-05T10:47:19.288Z,76.01
2023-12-05T10:49:50.145Z,75.95
2023-12-05T10:52:17.988Z,76.17
2023-12-05T10:54:45.896Z,75.67
2023-12-05T10:57:14.831Z,75.22
2023-12-05T10:59:42.488Z,75.31
2023-12-05T11:02:14.300Z,74.76
2023-12-05T11:04:42.804Z,75.27
2023-12-05T11:07:10.582Z,74.78
2023-12-05T11:09:38.165Z,74.14
2023-12-05T11:12:07.990Z,73.68
2023-12-05T11:14:41.689Z,72.90
2023-12-05T11:17:12.691Z,72.26
2023-12-05T11:20:02.205Z,70.22
2023-12-05T11:22:39.553Z,70.53
2023-12-05T11:25:30.828Z,68.17
2023-12-05T11:28:09.395Z,68.85
2023-12-05T11:31:07.602Z,67.91
2023-12-05T11:33:49.901Z,67.29
2023-12-05T11:36:30.653Z,65.92
2023-12-05T11:39:00.505Z,67.02
2023-12-05T11:41:28.862Z,66.31
2023-12-05T11:44:20.075Z,64.23
2023-12-05T11:46:49.636Z,65.31
2023-12-05T11:49:35.767Z,63.83
2023-12-05T11:52:10.336Z,63.69
2023-12-05T11:54:38.169Z,63.97
2023-12-05T11:57:13.808Z,61.65
2023-12-05T11:59:42.232Z,62.81
2023-12-05T12:02:14.237Z,60.99
2023-12-05T12:04:42.097Z,62.04
2023-12-05T12:07:09.763Z,61.59
2023-12-05T12:09:42.072Z,60.86
2023-12-05T12:12:11.160Z,61.24
2023-12-05T12:14:42.054Z,61.76
2023-12-05T12:17:12.771Z,60.73
2023-12-05T12:19:40.659Z,61.05
2023-12-05T12:22:09.675Z,61.87
2023-12-05T12:24:38.552Z,61.21
2023-12-05T12:27:08.211Z,61.47
2023-12-05T12:29:37.135Z,61.71
2023-12-05T12:32:13.584Z,61.74
2023-12-05T12:34:44.647Z,62.26
2023-12-05T12:37:18.176Z,62.32
2023-12-05T12:39:50.691Z,63.09
2023-12-05T12:42:18.976Z,62.38
2023-12-05T12:44:47.343Z,62.64
2023-12-05T12:47:17.088Z,63.54
2023-12-05T12:49:44.818Z,63.09
2023-12-05T12:52:12.681Z,62.43
2023-12-05T12:54:41.409Z,62.69
2023-12-05T12:57:09.096Z,62.94
2023-12-05T12:59:37.810Z,64.00
2023-12-05T13:02:07.843Z,63.91
2023-12-05T13:04:38.484Z,63.17
2023-12-05T13:07:06.548Z,64.18
2023-12-05T13:09:34.590Z,64.09
2023-12-05T13:12:02.477Z,64.22
2023-12-05T13:14:30.041Z,64.78
2023-12-05T13:16:57.588Z,64.67
2023-12-05T13:19:28.131Z,65.21
2023-12-05T13:21:57.368Z,65.81
2023-12-05T13:24:24.928Z,65.17
2023-12-05T13:26:52.924Z,65.29
2023-12-05T13:29:21.206Z,65.49
2023-12-05T13:31:48.813Z,64.91
2023-12-05T13:34:16.586Z,64.59
2023-12-05T13:36:44.586Z,64.72
2023-12-05T13:39:16.313Z,64.91
2023-12-05T13:41:44.408Z,65.42
2023-12-05T13:44:11.907Z,64.81
2023-12-05T13:46:40.275Z,65.86
2023-12-05T13:49:08.222Z,65.38
2023-12-05T13:51:36.520Z,64.89
2023-12-05T13:54:05.080Z,65.26
2023-12-05T13:56:34.369Z,65.36
2023-12-05T13:59:02.022Z,65.21
2023-12-05T14:01:29.685Z,65.51
2023-12-05T14:03:58.363Z,66.34
2023-12-05T14:06:26.168Z,66.46
2023-12-05T14:08:53.765Z,66.86
2023-12-05T14:11:21.257Z,66.11
2023-12-05T14:13:50.150Z,66.29
2023-12-05T14:16:17.778Z,66.66
2023-12-05T14:18:45.336Z,67.23
2023-12-05T14:21:12.906Z,67.16
2023-12-05T14:23:40.681Z,67.03
2023-12-05T14:26:08.449Z,67.10
2023-12-05T14:28:35.020Z,67.43
2023-12-05T14:31:03.979Z,67.67
2023-12-05T14:33:31.673Z,67.95
2023-12-05T14:35:59.285Z,67.48
2023-12-05T14:38:26.943Z,67.43
2023-12-05T14:40:54.459Z,67.85
2023-12-05T14:43:21.968Z,67.87
2023-12-05T14:45:49.525Z,68.32
2023-12-05T14:48:18.476Z,68.41
2023-12-05T14:50:46.084Z,68.26
2023-12-05T14:53:13.759Z,68.43
2023-12-05T14:55:41.334Z,68.56
2023-12-05T14:58:09.347Z,68.49
2023-12-05T15:00:37.424Z,68.81
2023-12-05T15:03:05.456Z,68.67
2023-12-05T15:05:34.383Z,69.44
2023-12-05T15:08:03.089Z,69.10
2023-12-05T15:10:31.752Z,69.17
2023-12-05T15:12:59.324Z,70.11
2023-12-05T15:15:27.335Z,70.15
2023-12-05T15:17:55.028Z,70.07
2023-12-05T15:20:24.249Z,70.36
2023-12-05T15:22:54.210Z,70.63
2023-12-05T15:25:21.983Z,71.13
2023-12-05T15:27:49.625Z,71.17
2023-12-05T15:30:17.348Z,71.21
2023-12-05T15:32:51.367Z,71.82
2023-12-05T15:35:19.803Z,71.87
2023-12-05T15:37:47.390Z,71.66
2023-12-05T15:40:17.257Z,71.97
2023-12-05T15:42:46.094Z,72.28
2023-12-05T15:45:14.351Z,71.83
2023-12-05T15:47:44.057Z,71.95
2023-12-05T15:50:12.149Z,71.94
2023-12-05T15:52:40.082Z,72.18
2023-12-05T15:55:08.279Z,72.32
2023-12-05T15:57:37.607Z,72.78
2023-12-05T16:00:06.260Z,73.02
2023-12-05T16:02:33.915Z,73.23
2023-12-05T16:05:01.601Z,73.16
2023-12-05T16:07:29.420Z,73.69
2023-12-05T16:09:57.127Z,73.41
2023-12-05T16:12:24.754Z,73.99
2023-12-05T16:14:53.950Z,73.48
2023-12-05T16:17:21.674Z,73.42
2023-12-05T16:19:49.572Z,73.01
2023-12-05T16:22:17.185Z,73.40
2023-12-05T16:24:44.758Z,73.24
2023-12-05T16:27:12.355Z,73.56
2023-12-05T16:29:39.898Z,74.24
2023-12-05T16:32:09.315Z,74.37
2023-12-05T16:34:36.968Z,74.39
2023-12-05T16:37:04.887Z,74.57
2023-12-05T16:39:32.575Z,74.72
2023-12-05T16:42:00.210Z,74.13
2023-12-05T16:44:27.804Z,74.34
2023-12-05T16:46:55.362Z,74.46
2023-12-05T16:49:24.984Z,74.43
2023-12-05T16:51:53.247Z,74.21
2023-12-05T16:54:20.833Z,75.08
2023-12-05T16:56:48.693Z,75.61
2023-12-05T16:59:25.037Z,75.23
2023-12-05T17:01:56.291Z,75.68
2023-12-05T17:04:25.310Z,75.92
2023-12-05T17:06:55.638Z,75.92
2023-12-05T17:09:23.409Z,76.20
2023-12-05T17:11:50.936Z,75.48
2023-12-05T17:14:18.444Z,75.91
2023-12-05T17:16:45.959Z,76.39
2023-12-05T17:19:13.597Z,76.16
2023-12-05T17:21:42.532Z,76.34
2023-12-05T17:24:10.133Z,76.59
2023-12-05T17:26:37.648Z,76.24
2023-12-05T17:29:05.552Z,75.58
2023-12-05T17:31:33.145Z,75.54
2023-12-05T17:34:01.150Z,75.57
2023-12-05T17:36:28.859Z,75.46
2023-12-05T17:38:57.781Z,75.37
2023-12-05T17:41:25.334Z,74.95
2023-12-05T17:43:52.853Z,75.19
2023-12-05T17:46:20.429Z,75.52
2023-12-05T17:48:48.123Z,75.69
2023-12-05T17:51:15.769Z,75.84
2023-12-05T17:53:43.355Z,76.39
2023-12-05T17:56:12.673Z,75.74
2023-12-05T17:58:40.318Z,75.59
2023-12-05T18:01:09.036Z,75.46
2023-12-05T18:03:36.771Z,75.72
2023-12-05T18:06:04.738Z,75.58
2023-12-05T18:08:32.372Z,75.06
2023-12-05T18:11:00.264Z,75.51
2023-12-05T18:13:29.186Z,75.21
2023-12-05T18:15:56.775Z,75.19
2023-12-05T18:18:24.650Z,75.21
2023-12-05T18:20:52.321Z,75.73
2023-12-05T18:23:19.887Z,76.15
2023-12-05T18:25:47.436Z,76.01
2023-12-05T18:28:16.314Z,76.31
2023-12-05T18:30:45.305Z,76.15
2023-12-05T18:33:13.123Z,75.77
2023-12-05T18:35:40.731Z,75.36
2023-12-05T18:38:09.122Z,75.38
2023-12-05T18:40:36.643Z,75.46
2023-12-05T18:43:04.414Z,75.20
2023-12-05T18:45:32.923Z,74.91
2023-12-05T18:48:01.933Z,75.42
2023-12-05T18:50:29.580Z,75.95
2023-12-05T18:52:58.276Z,75.69
2023-12-05T18:55:26.135Z,75.23
2023-12-05T18:57:54.948Z,75.92
2023-12-05T19:00:22.554Z,75.91
2023-12-05T19:02:51.273Z,75.89
2023-12-05T19:05:20.298Z,75.53
2023-12-05T19:07:48.779Z,76.08
2023-12-05T19:10:16.472Z,76.58
2023-12-05T19:12:46.096Z,76.04
2023-12-05T19:15:13.811Z,75.81
2023-12-05T19:17:41.533Z,75.29
2023-12-05T19:20:10.240Z,75.69
2023-12-05T19:22:38.155Z,76.57
2023-12-05T19:25:07.221Z,76.65
2023-12-05T19:27:35.675Z,76.74
2023-12-05T19:30:05.022Z,76.32
2023-12-05T19:32:32.663Z,76.34
2023-12-05T19:35:00.384Z,76.91
2023-12-05T19:37:28.055Z,77.25
2023-12-05T19:39:56.963Z,77.08
2023-12-05T19:42:24.583Z,76.92
2023-12-05T19:44:52.160Z,76.56
2023-12-05T19:47:23.800Z,76.56
2023-12-05T19:49:51.956Z,76.28
2023-12-05T19:52:19.753Z,76.56
2023-12-05T19:54:47.343Z,76.79
2023-12-05T19:57:16.417Z,77.27
2023-12-05T19:59:45.704Z,77.76
2023-12-05T20:02:13.371Z,77.96
2023-12-05T20:04:41.300Z,77.72
2023-12-05T20:07:09.312Z,77.19
2023-12-05T20:09:38.105Z,77.39
2023-12-05T20:12:06.510Z,77.90
2023-12-05T20:14:35.455Z,77.64
2023-12-05T20:17:04.335Z,77.34
2023-12-05T20:19:32.362Z,77.37
2023-12-05T20:22:00.221Z,78.07
2023-12-05T20:24:27.914Z,78.01
2023-12-05T20:26:55.454Z,77.72
2023-12-05T20:29:24.472Z,77.70
2023-12-05T20:31:53.380Z,77.87
2023-12-05T20:34:21.008Z,78.33
2023-12-05T20:36:48.654Z,78.20
2023-12-05T20:39:16.235Z,78.22
2023-12-05T20:41:43.870Z,78.51
2023-12-05T20:44:11.685Z,78.79
2023-12-05T20:46:39.252Z,79.33
2023-12-05T20:49:08.286Z,79.80
2023-12-05T20:51:35.886Z,79.01
2023-12-05T20:54:03.421Z,79.32
2023-12-05T20:56:30.993Z,79.43
2023-12-05T20:58:58.806Z,80.24
2023-12-05T21:01:26.399Z,80.15
2023-12-05T21:03:54.368Z,80.06
2023-12-05T21:06:23.548Z,80.27
2023-12-05T21:09:10.776Z,80.45
2023-12-05T21:11:38.578Z,80.10
2023-12-05T21:14:06.912Z,79.61
2023-12-05T21:16:35.363Z,80.22
2023-12-05T21:19:03.025Z,80.49
2023-12-05T21:21:32.030Z,81.33
2023-12-05T21:23:59.684Z,80.91
2023-12-05T21:26:27.228Z,80.43
2023-12-05T21:28:54.835Z,80.23
2023-12-05T21:31:22.374Z,80.31
2023-12-05T21:33:50.043Z,80.49
2023-12-05T21:36:24.899Z,81.56
2023-12-05T21:38:58.363Z,81.11
2023-12-05T21:41:27.082Z,80.49
2023-12-05T21:43:54.632Z,81.06
2023-12-05T21:46:23.842Z,81.52
2023-12-05T21:48:51.823Z,81.27
2023-12-05T21:51:19.522Z,81.67
2023-12-05T21:53:47.091Z,81.43
2023-12-05T21:56:16.035Z,81.48
2023-12-05T21:58:43.573Z,81.80
2023-12-05T22:01:12.596Z,82.07
2023-12-05T22:03:40.602Z,81.75
2023-12-05T22:06:09.266Z,81.89
2023-12-05T22:08:37.198Z,81.82
2023-12-05T22:11:07.075Z,82.12
2023-12-05T22:13:35.942Z,81.89
2023-12-05T22:16:05.152Z,81.80
2023-12-05T22:18:33.070Z,81.60
2023-12-05T22:21:02.410Z,81.66
2023-12-05T22:23:33.569Z,81.75
2023-12-05T22:26:03.153Z,82.21
2023-12-05T22:28:32.608Z,82.33
2023-12-05T22:31:01.706Z,83.02
2023-12-05T22:33:29.661Z,82.86
2023-12-05T22:35:58.154Z,82.09
2023-12-05T22:38:25.854Z,81.73
2023-12-05T22:40:53.508Z,81.51
2023-12-05T22:43:21.134Z,81.74
2023-12-05T22:45:48.740Z,81.64
2023-12-05T22:48:17.795Z,82.09
2023-12-05T22:50:45.532Z,82.31
2023-12-05T22:53:13.103Z,81.95
2023-12-05T22:55:40.866Z,82.37
2023-12-05T22:58:08.487Z,81.95
2023-12-05T23:00:36.190Z,81.95
2023-12-05T23:03:03.877Z,81.58
2023-12-05T23:05:32.855Z,82.54
2023-12-05T23:08:00.485Z,83.21
2023-12-05T23:10:28.190Z,83.01
2023-12-05T23:12:55.826Z,82.37
2023-12-05T23:15:23.457Z,81.92
2023-12-05T23:17:51.066Z,81.76
2023-12-05T23:20:18.801Z,81.61
2023-12-05T23:22:47.706Z,81.44
2023-12-05T23:25:15.666Z,81.25
2023-12-05T23:27:43.330Z,81.25
2023-12-05T23:30:12.791Z,80.55
2023-12-05T23:32:40.418Z,80.87
2023-12-05T23:35:08.616Z,81.44
2023-12-05T23:37:36.197Z,81.68
2023-12-05T23:40:06.224Z,82.62
2023-12-05T23:42:33.902Z,82.09
2023-12-05T23:45:01.585Z,82.07
2023-12-05T23:47:29.572Z,82.23
2023-12-05T23:49:57.741Z,81.49
2023-12-05T23:52:25.281Z,81.39
2023-12-05T23:54:52.931Z,81.51
2023-12-05T23:57:22.073Z,81.32
2023-12-05T23:59:49.832Z,80.67
